Time;durP1;ratioP1;P1;durP2;ratioP2;P2;SDS_P1;SDS_P2;PMS_P1;PMS_P2;Temp;Humidity;BMP_temperature;BMP_pressure;BME280_temperature;BME280_humidity;BME280_pressure;Samples;Min_cycle;Max_cycle;Signal;HPM_P1;HPM_P2
2021/12/10 00:00:31;;;;;;;17.67;9.55;;;4.90;99.90;;;;;;5052658;28;20124;-77
2021/12/10 00:02:59;;;;;;;20.85;6.65;;;4.90;99.90;;;;;;5036195;28;20157;-77
2021/12/10 00:05:30;;;;;;;13.13;7.88;;;4.90;99.90;;;;;;5032667;28;20079;-77
2021/12/10 00:07:58;;;;;;;7.57;4.43;;;4.90;99.90;;;;;;5053847;28;20406;-77
2021/12/10 00:10:29;;;;;;;15.02;7.18;;;4.90;99.90;;;;;;5055830;28;20111;-77
2021/12/10 00:12:55;;;;;;;21.77;9.80;;;4.90;99.90;;;;;;5033250;28;20406;-77
2021/12/10 00:15:24;;;;;;;13.48;7.30;;;4.90;99.90;;;;;;5076192;28;20044;-77
2021/12/10 00:17:51;;;;;;;14.18;8.88;;;4.90;99.90;;;;;;5035553;28;20135;-77
2021/12/10 00:20:19;;;;;;;14.68;7.45;;;4.90;99.90;;;;;;5069054;28;20431;-77
2021/12/10 00:22:53;;;;;;;19.10;8.45;;;4.90;99.90;;;;;;5063106;28;20128;-77
2021/12/10 00:25:22;;;;;;;20.65;9.73;;;4.90;99.90;;;;;;5065693;28;20041;-77
2021/12/10 00:27:50;;;;;;;11.88;7.85;;;4.90;99.90;;;;;;5060899;28;20036;-77
2021/12/10 00:30:25;;;;;;;4.63;2.30;;;4.90;99.90;;;;;;5046179;28;20072;-77
2021/12/10 00:33:09;;;;;;;25.10;9.60;;;5.00;99.90;;;;;;5052356;28;20052;-77
2021/12/10 00:35:36;;;;;;;30.52;6.40;;;5.00;99.90;;;;;;5064470;28;20101;-77
2021/12/10 00:38:03;;;;;;;7.28;4.35;;;5.00;99.90;;;;;;5041450;28;20064;-77
2021/12/10 00:40:29;;;;;;;8.65;6.00;;;5.00;99.90;;;;;;5055232;28;20526;-77
2021/12/10 00:42:55;;;;;;;15.13;8.27;;;4.90;99.90;;;;;;5069564;28;20170;-77
2021/12/10 00:45:21;;;;;;;9.13;5.90;;;5.00;99.90;;;;;;5051674;28;20044;-77
2021/12/10 00:47:49;;;;;;;13.60;7.80;;;5.00;99.90;;;;;;5074476;28;20123;-77
2021/12/10 00:50:22;;;;;;;18.15;8.85;;;5.00;99.90;;;;;;5064042;28;20504;-77
2021/12/10 00:52:50;;;;;;;12.88;4.13;;;5.00;99.90;;;;;;5043397;28;20040;-77
2021/12/10 00:55:17;;;;;;;10.15;6.97;;;5.00;99.90;;;;;;5065068;28;20049;-77
2021/12/10 00:57:43;;;;;;;4.50;3.67;;;5.00;99.90;;;;;;5061971;28;20072;-77
2021/12/10 01:00:14;;;;;;;4.53;2.83;;;5.00;99.90;;;;;;5069472;28;20388;-77
2021/12/10 01:02:40;;;;;;;10.88;5.32;;;5.00;99.90;;;;;;5043955;28;20492;-77
2021/12/10 01:05:08;;;;;;;15.02;7.60;;;4.90;99.90;;;;;;5069232;28;20040;-77
2021/12/10 01:07:35;;;;;;;12.07;4.78;;;5.00;99.90;;;;;;5028810;28;20047;-77
2021/12/10 01:10:09;;;;;;;12.38;6.72;;;5.00;99.90;;;;;;5049483;28;20041;-77
2021/12/10 01:12:40;;;;;;;7.10;5.70;;;4.90;99.90;;;;;;5043384;28;20032;-78
2021/12/10 01:26:36;;;;;;;9.20;4.70;;;4.90;99.90;;;;;;5046319;28;20037;-77
2021/12/10 01:29:00;;;;;;;10.48;6.47;;;4.90;99.90;;;;;;5047613;28;20409;-77
2021/12/10 01:31:26;;;;;;;9.15;6.03;;;4.90;99.90;;;;;;5038061;28;20033;-77
2021/12/10 01:33:53;;;;;;;5.53;2.95;;;4.90;99.90;;;;;;5047513;28;20047;-77
2021/12/10 01:36:19;;;;;;;25.30;6.25;;;4.80;99.90;;;;;;5065463;28;20483;-77
2021/12/10 01:38:48;;;;;;;3.25;2.88;;;4.70;99.90;;;;;;5083731;28;20060;-77
2021/12/10 01:41:17;;;;;;;17.58;8.18;;;4.70;99.90;;;;;;5042689;28;20073;-77
2021/12/10 01:43:44;;;;;;;13.70;4.07;;;4.60;99.90;;;;;;5044366;28;20052;-77
2021/12/10 01:46:18;;;;;;;5.38;4.55;;;4.50;99.90;;;;;;5029259;28;20102;-77
2021/12/10 01:48:48;;;;;;;7.80;5.07;;;4.40;99.90;;;;;;5033927;28;20068;-77
2021/12/10 01:51:17;;;;;;;5.03;2.17;;;4.30;99.90;;;;;;5043830;28;20037;-77
2021/12/10 01:53:46;;;;;;;4.45;3.42;;;4.30;99.90;;;;;;5050932;28;20056;-77
2021/12/10 01:56:18;;;;;;;12.15;6.53;;;4.20;99.90;;;;;;5032391;28;20049;-77
2021/12/10 01:58:44;;;;;;;9.63;4.50;;;4.20;99.90;;;;;;5041891;28;20052;-77
2021/12/10 02:01:21;;;;;;;5.22;4.75;;;4.20;99.90;;;;;;5047800;28;20045;-77
2021/12/10 02:03:49;;;;;;;6.20;3.60;;;4.10;99.90;;;;;;5032730;28;20386;-77
2021/12/10 02:06:15;;;;;;;18.33;5.97;;;4.10;99.90;;;;;;5035117;28;20497;-77
2021/12/10 02:08:42;;;;;;;12.68;6.80;;;4.10;99.90;;;;;;5035746;28;20505;-77
2021/12/10 02:11:08;;;;;;;13.50;5.20;;;4.20;99.90;;;;;;5035734;28;20116;-77
2021/12/10 02:13:35;;;;;;;17.65;5.70;;;4.20;99.90;;;;;;5032812;28;20212;-77
2021/12/10 02:16:01;;;;;;;13.23;7.68;;;4.20;99.90;;;;;;5046758;28;20465;-77
2021/12/10 02:18:27;;;;;;;11.93;5.70;;;4.30;99.90;;;;;;5039616;28;20095;-77
2021/12/10 02:21:02;;;;;;;8.57;4.95;;;4.30;99.90;;;;;;5037515;28;20075;-77
2021/12/10 02:23:32;;;;;;;9.35;4.10;;;4.30;99.90;;;;;;5057082;28;20080;-77
2021/12/10 02:26:01;;;;;;;12.18;5.32;;;4.30;99.90;;;;;;5057408;28;20114;-77
2021/12/10 02:28:27;;;;;;;11.77;6.05;;;4.40;99.90;;;;;;5085404;28;20460;-77
2021/12/10 02:30:54;;;;;;;5.75;3.45;;;4.40;99.90;;;;;;5059422;28;20279;-77
2021/12/10 02:33:21;;;;;;;17.45;6.85;;;4.40;99.90;;;;;;5058820;28;20134;-77
2021/12/10 02:35:47;;;;;;;12.02;4.13;;;4.40;99.90;;;;;;5065113;28;20048;-77
2021/12/10 02:38:18;;;;;;;14.15;5.55;;;4.50;99.90;;;;;;5066877;28;20400;-77
2021/12/10 02:40:46;;;;;;;10.27;4.90;;;4.50;99.90;;;;;;5069054;28;20157;-77
2021/12/10 02:43:14;;;;;;;11.57;6.15;;;4.50;99.90;;;;;;5071833;28;20044;-77
2021/12/10 02:45:42;;;;;;;6.40;4.20;;;4.50;99.90;;;;;;5056225;28;20049;-78
2021/12/10 02:48:08;;;;;;;10.73;4.55;;;4.60;99.90;;;;;;5054996;28;20043;-77
2021/12/10 02:50:35;;;;;;;17.73;6.10;;;4.60;99.90;;;;;;5105712;28;20048;-77
2021/12/10 02:53:01;;;;;;;8.73;5.28;;;4.60;99.90;;;;;;5071788;28;20052;-77
2021/12/10 02:55:30;;;;;;;13.68;4.40;;;4.60;99.90;;;;;;5038299;28;20574;-78
2021/12/10 02:58:00;;;;;;;3.30;2.30;;;4.60;99.90;;;;;;5054661;28;20052;-77
2021/12/10 03:00:32;;;;;;;15.38;7.70;;;4.60;99.90;;;;;;5055030;28;20560;-77
2021/12/10 03:02:58;;;;;;;13.38;6.78;;;4.60;99.90;;;;;;5071556;28;20125;-77
2021/12/10 03:05:24;;;;;;;15.70;6.38;;;4.60;99.90;;;;;;5065848;28;20555;-77
2021/12/10 03:07:51;;;;;;;12.68;6.00;;;4.60;99.90;;;;;;5052792;28;20045;-77
2021/12/10 03:10:23;;;;;;;9.85;5.13;;;4.60;99.90;;;;;;5045715;28;20048;-77
2021/12/10 03:12:49;;;;;;;5.47;4.18;;;4.60;99.90;;;;;;5041726;28;20049;-77
2021/12/10 03:15:17;;;;;;;18.95;7.22;;;4.60;99.90;;;;;;5075752;28;20039;-77
2021/12/10 03:17:44;;;;;;;10.98;4.65;;;4.60;99.90;;;;;;5071037;28;20044;-77
2021/12/10 03:20:12;;;;;;;6.90;5.38;;;4.60;99.90;;;;;;5063459;28;20038;-77
2021/12/10 03:22:39;;;;;;;14.02;4.55;;;4.60;99.90;;;;;;5047495;28;20044;-77
2021/12/10 03:25:11;;;;;;;7.55;4.18;;;4.60;99.90;;;;;;5049170;28;20045;-77
2021/12/10 03:27:37;;;;;;;19.92;5.93;;;4.50;99.90;;;;;;5050902;28;20037;-77
2021/12/10 03:30:09;;;;;;;10.25;4.57;;;4.60;99.90;;;;;;5069442;28;20037;-77
2021/12/10 03:32:38;;;;;;;9.80;3.90;;;4.60;99.90;;;;;;5048538;28;20110;-77
2021/12/10 03:35:13;;;;;;;11.60;6.05;;;4.50;99.90;;;;;;5037641;28;20047;-77
2021/12/10 03:37:41;;;;;;;9.75;5.72;;;4.50;99.90;;;;;;5049779;28;20381;-77
2021/12/10 03:40:09;;;;;;;8.07;4.47;;;4.50;99.90;;;;;;5059393;28;20075;-77
2021/12/10 03:42:35;;;;;;;9.63;6.43;;;4.60;99.90;;;;;;5051502;28;20448;-77
2021/12/10 03:45:00;;;;;;;5.90;3.53;;;4.60;99.90;;;;;;5034135;28;20127;-77
2021/12/10 03:47:26;;;;;;;5.72;3.80;;;4.60;99.90;;;;;;5058739;28;20029;-77
2021/12/10 03:49:52;;;;;;;4.80;3.42;;;4.60;99.90;;;;;;5047012;28;20044;-77
2021/12/10 03:52:18;;;;;;;6.68;4.45;;;4.50;99.90;;;;;;5083895;28;20045;-77
2021/12/10 03:54:44;;;;;;;11.82;6.10;;;4.50;99.90;;;;;;5070518;28;20523;-77
2021/12/10 03:57:10;;;;;;;11.25;5.25;;;4.50;99.90;;;;;;5056312;28;20063;-77
2021/12/10 03:59:37;;;;;;;5.97;3.63;;;4.50;99.90;;;;;;5055577;28;20054;-77
2021/12/10 04:02:06;;;;;;;12.32;4.28;;;4.50;99.90;;;;;;5051801;28;20468;-77
2021/12/10 04:04:40;;;;;;;8.27;4.72;;;4.50;99.90;;;;;;5048217;28;20044;-77
2021/12/10 04:07:10;;;;;;;9.52;5.07;;;4.50;99.90;;;;;;5045802;28;20039;-77
2021/12/10 04:09:36;;;;;;;3.65;2.58;;;4.50;99.90;;;;;;5032428;28;20060;-77
2021/12/10 04:12:04;;;;;;;12.07;4.90;;;4.50;99.90;;;;;;5054910;28;20398;-77
2021/12/10 04:14:30;;;;;;;8.63;5.07;;;4.50;99.90;;;;;;5056134;28;20132;-78
2021/12/10 04:16:57;;;;;;;12.95;4.40;;;4.50;99.90;;;;;;5083078;28;20044;-77
2021/12/10 04:19:25;;;;;;;13.43;5.10;;;4.50;99.90;;;;;;5067855;28;20073;-77
2021/12/10 04:21:56;;;;;;;12.15;5.25;;;4.40;99.90;;;;;;5051843;28;20512;-77
2021/12/10 04:24:24;;;;;;;15.68;4.57;;;4.50;99.90;;;;;;5028569;28;20041;-77
2021/12/10 04:26:51;;;;;;;9.98;4.95;;;4.40;99.90;;;;;;5065827;28;20056;-78
2021/12/10 04:29:20;;;;;;;9.70;4.75;;;4.40;99.90;;;;;;5032088;28;20051;-77
2021/12/10 04:31:51;;;;;;;13.88;6.35;;;4.40;99.90;;;;;;5068074;28;20075;-77
2021/12/10 04:34:18;;;;;;;9.18;4.97;;;4.30;99.90;;;;;;5030572;28;20532;-77
2021/12/10 04:36:44;;;;;;;9.23;5.57;;;4.30;99.90;;;;;;5057852;28;20119;-78
2021/12/10 04:39:11;;;;;;;5.65;4.95;;;4.20;99.90;;;;;;5085076;28;20045;-77
2021/12/10 04:41:37;;;;;;;10.50;5.57;;;4.20;99.90;;;;;;5055241;28;20423;-77
2021/12/10 04:44:03;;;;;;;7.72;4.53;;;4.20;99.90;;;;;;5059406;28;20094;-77
2021/12/10 04:46:30;;;;;;;12.07;5.38;;;4.10;99.90;;;;;;5061652;28;20050;-77
2021/12/10 04:49:03;;;;;;;5.10;3.90;;;4.00;99.90;;;;;;5043718;28;20047;-77
2021/12/10 04:51:33;;;;;;;7.88;4.15;;;4.00;99.90;;;;;;5067038;28;20083;-77
2021/12/10 04:54:01;;;;;;;6.30;4.43;;;3.90;99.90;;;;;;5041181;28;20068;-77
2021/12/10 04:56:28;;;;;;;3.00;2.67;;;3.80;99.90;;;;;;5078736;28;20041;-77
2021/12/10 04:58:55;;;;;;;9.52;4.43;;;3.70;99.90;;;;;;5049178;28;20095;-77
2021/12/10 05:01:21;;;;;;;3.35;1.73;;;3.60;99.90;;;;;;5063962;28;20048;-77
2021/12/10 05:03:47;;;;;;;4.18;3.17;;;3.50;99.90;;;;;;5045093;28;20560;-77
2021/12/10 05:06:13;;;;;;;12.30;4.50;;;3.40;99.90;;;;;;5031988;28;20040;-77
2021/12/10 05:08:39;;;;;;;5.70;3.58;;;3.30;99.90;;;;;;5051586;28;20497;-77
2021/12/10 05:11:08;;;;;;;20.33;5.57;;;3.30;99.90;;;;;;5049906;28;20054;-78
2021/12/10 05:13:36;;;;;;;3.92;3.17;;;3.20;99.90;;;;;;5044911;28;20048;-77
2021/12/10 05:16:02;;;;;;;6.88;4.72;;;3.20;99.90;;;;;;5085998;28;20070;-77
2021/12/10 05:18:33;;;;;;;7.38;3.90;;;3.20;99.90;;;;;;5048139;28;20041;-77
2021/12/10 05:20:59;;;;;;;14.75;6.90;;;3.10;99.90;;;;;;5040630;28;20048;-77
2021/12/10 05:23:25;;;;;;;4.85;3.75;;;3.10;99.90;;;;;;5029608;28;20386;-77
2021/12/10 05:25:51;;;;;;;6.85;4.57;;;3.10;99.90;;;;;;5072004;28;20593;-77
2021/12/10 05:28:18;;;;;;;5.55;4.47;;;3.10;99.90;;;;;;5049333;28;20532;-77
2021/12/10 05:30:46;;;;;;;7.60;5.22;;;3.10;99.90;;;;;;5058217;28;20524;-77
2021/12/10 05:33:16;;;;;;;5.40;3.45;;;3.00;99.90;;;;;;5069084;28;20461;-77
2021/12/10 05:35:46;;;;;;;12.43;7.30;;;3.00;99.90;;;;;;5068200;28;20052;-78
2021/12/10 05:38:12;;;;;;;13.80;5.70;;;3.00;99.90;;;;;;5044064;28;20049;-77
2021/12/10 05:40:37;;;;;;;9.38;6.28;;;3.10;99.90;;;;;;5040889;28;20045;-77
2021/12/10 05:43:03;;;;;;;11.15;6.95;;;3.10;99.90;;;;;;5064059;28;20048;-77
2021/12/10 05:45:31;;;;;;;21.40;8.18;;;3.20;99.90;;;;;;5036939;28;20247;-78
2021/12/10 05:47:57;;;;;;;7.90;5.10;;;3.30;99.90;;;;;;5048248;28;20037;-77
2021/12/10 05:50:26;;;;;;;10.93;7.13;;;3.40;99.90;;;;;;5034870;28;20492;-77
2021/12/10 05:52:52;;;;;;;10.70;6.35;;;3.40;99.90;;;;;;5062664;28;20055;-77
2021/12/10 05:55:19;;;;;;;8.70;5.63;;;3.40;99.90;;;;;;5058045;28;20049;-77
2021/12/10 05:57:45;;;;;;;9.20;5.22;;;3.30;99.90;;;;;;5040720;28;20040;-78
2021/12/10 06:00:16;;;;;;;14.27;8.00;;;3.30;99.90;;;;;;5069011;28;20040;-77
2021/12/10 06:02:42;;;;;;;7.03;5.25;;;3.30;99.90;;;;;;5052329;28;20049;-77
2021/12/10 06:05:08;;;;;;;14.55;6.82;;;3.20;99.90;;;;;;5039967;28;20040;-77
2021/12/10 06:07:35;;;;;;;9.10;4.82;;;3.10;99.90;;;;;;5057070;28;20043;-77
2021/12/10 06:10:02;;;;;;;16.67;7.07;;;3.10;99.90;;;;;;5053187;28;20450;-77
2021/12/10 06:12:28;;;;;;;10.98;5.40;;;3.10;99.90;;;;;;5049564;28;20049;-78
2021/12/10 06:14:54;;;;;;;8.88;4.18;;;3.00;99.90;;;;;;5037224;28;20109;-77
2021/12/10 06:17:20;;;;;;;6.40;4.50;;;3.00;99.90;;;;;;5060282;28;20052;-78
2021/12/10 06:19:45;;;;;;;9.20;5.28;;;2.90;99.90;;;;;;5049742;28;20044;-77
2021/12/10 06:22:11;;;;;;;15.05;8.65;;;2.90;99.90;;;;;;5080961;28;20033;-77
2021/12/10 06:24:37;;;;;;;9.20;4.45;;;2.80;99.90;;;;;;5062223;28;20033;-77
2021/12/10 06:27:03;;;;;;;14.38;8.57;;;2.90;99.90;;;;;;5044553;28;20488;-77
2021/12/10 06:29:29;;;;;;;14.38;7.38;;;2.90;99.90;;;;;;5058508;28;20417;-78
2021/12/10 06:31:55;;;;;;;9.10;6.15;;;3.00;99.90;;;;;;5054876;28;20036;-78
2021/12/10 06:34:22;;;;;;;8.48;5.97;;;3.00;99.90;;;;;;5068281;28;20056;-77
2021/12/10 06:36:49;;;;;;;18.83;8.23;;;3.00;99.90;;;;;;5036569;28;20127;-78
2021/12/10 06:39:20;;;;;;;8.13;5.45;;;2.90;99.90;;;;;;5048170;28;20045;-77
2021/12/10 06:41:55;;;;;;;9.90;6.97;;;2.90;99.90;;;;;;5045129;28;20546;-77
2021/12/10 06:44:22;;;;;;;7.65;5.13;;;2.80;99.90;;;;;;5057654;28;20045;-77
2021/12/10 06:46:49;;;;;;;6.47;3.83;;;2.80;99.90;;;;;;5031534;28;20029;-77
2021/12/10 06:49:16;;;;;;;11.43;6.30;;;2.70;99.90;;;;;;5041573;28;20040;-77
2021/12/10 06:51:41;;;;;;;4.25;3.35;;;2.70;99.90;;;;;;5050386;28;20381;-78
2021/12/10 06:54:07;;;;;;;7.68;4.47;;;2.70;99.90;;;;;;5071651;28;20040;-77
2021/12/10 06:56:35;;;;;;;4.30;3.03;;;2.60;99.90;;;;;;5068083;28;20037;-77
2021/12/10 06:59:03;;;;;;;10.38;7.18;;;2.60;99.90;;;;;;5071582;28;20055;-77
2021/12/10 07:01:33;;;;;;;12.77;7.20;;;2.60;99.90;;;;;;5041817;28;20041;-77
2021/12/10 07:04:00;;;;;;;14.48;6.40;;;2.60;99.90;;;;;;5052910;28;20512;-77
2021/12/10 07:06:28;;;;;;;9.00;6.07;;;2.50;99.90;;;;;;5049720;28;20041;-77
2021/12/10 07:08:56;;;;;;;6.10;4.22;;;2.60;99.90;;;;;;5049899;28;20044;-77
2021/12/10 07:11:23;;;;;;;4.03;2.67;;;2.60;99.90;;;;;;5030201;28;20517;-77
2021/12/10 07:13:52;;;;;;;5.45;3.95;;;2.50;99.90;;;;;;5033088;28;20040;-77
2021/12/10 07:16:20;;;;;;;9.63;5.10;;;2.40;99.90;;;;;;5050230;28;20612;-77
2021/12/10 07:18:46;;;;;;;11.32;4.38;;;2.40;99.90;;;;;;5045274;28;20154;-77
2021/12/10 07:21:12;;;;;;;6.93;4.07;;;2.40;99.90;;;;;;5061552;28;20056;-77
2021/12/10 07:23:40;;;;;;;8.15;4.50;;;2.40;99.90;;;;;;5047173;28;20413;-78
2021/12/10 07:26:06;;;;;;;3.53;3.22;;;2.40;99.90;;;;;;5038839;28;20440;-77
2021/12/10 07:28:32;;;;;;;1.85;1.75;;;2.30;99.90;;;;;;5060459;28;20052;-77
2021/12/10 07:30:58;;;;;;;5.00;3.50;;;2.30;99.90;;;;;;5074846;28;20605;-77
2021/12/10 07:33:24;;;;;;;7.78;5.70;;;2.20;99.90;;;;;;5063915;28;20066;-77
2021/12/10 07:35:51;;;;;;;3.53;3.13;;;2.20;99.90;;;;;;5074005;28;20124;-77
2021/12/10 07:38:17;;;;;;;2.30;1.95;;;2.20;99.90;;;;;;5035464;28;20052;-77
2021/12/10 07:40:43;;;;;;;4.15;2.58;;;2.20;99.90;;;;;;5075837;28;20125;-77
2021/12/10 07:43:10;;;;;;;8.43;5.68;;;2.10;99.90;;;;;;5064905;28;20048;-78
2021/12/10 07:45:37;;;;;;;5.97;3.63;;;2.20;99.90;;;;;;5070405;28;20040;-77
2021/12/10 07:48:08;;;;;;;2.85;2.13;;;2.20;99.90;;;;;;5041098;28;20116;-77
2021/12/10 07:50:37;;;;;;;8.43;4.82;;;2.20;99.90;;;;;;5034727;28;20040;-77
2021/12/10 07:53:04;;;;;;;5.22;3.45;;;2.20;99.90;;;;;;5031889;28;20047;-77
2021/12/10 07:55:33;;;;;;;10.13;5.00;;;2.10;99.90;;;;;;5046135;28;20045;-77
2021/12/10 07:57:59;;;;;;;4.50;3.67;;;2.20;99.90;;;;;;5052740;28;20131;-77
2021/12/10 08:00:28;;;;;;;5.80;3.65;;;2.10;99.90;;;;;;5070310;28;20054;-77
2021/12/10 08:02:55;;;;;;;14.15;3.88;;;2.20;99.90;;;;;;5062904;28;20543;-77
2021/12/10 08:05:22;;;;;;;5.13;4.35;;;2.10;99.90;;;;;;5068071;28;20171;-77
2021/12/10 08:07:49;;;;;;;6.45;3.22;;;2.10;99.90;;;;;;5070163;28;20047;-77
2021/12/10 08:10:16;;;;;;;3.85;1.85;;;2.10;99.90;;;;;;5050368;28;20051;-77
2021/12/10 08:12:42;;;;;;;4.50;2.35;;;2.10;99.90;;;;;;5058306;28;20492;-77
2021/12/10 08:15:08;;;;;;;4.63;3.83;;;2.20;99.90;;;;;;5070260;28;20049;-77
2021/12/10 08:17:35;;;;;;;8.88;5.32;;;2.20;99.90;;;;;;5069887;28;20399;-77
2021/12/10 08:20:04;;;;;;;12.88;5.90;;;2.20;99.90;;;;;;5067921;28;20052;-77
2021/12/10 08:22:30;;;;;;;5.72;2.53;;;2.40;99.90;;;;;;5049412;28;20056;-76
2021/12/10 08:24:56;;;;;;;7.97;3.70;;;2.60;99.90;;;;;;5067449;28;20044;-77
2021/12/10 08:27:22;;;;;;;4.53;3.95;;;2.80;99.90;;;;;;5064992;28;20048;-77
2021/12/10 08:29:48;;;;;;;1.65;1.55;;;2.90;99.90;;;;;;5039954;28;20070;-77
2021/12/10 08:32:19;;;;;;;7.35;5.40;;;2.90;99.90;;;;;;5044878;28;20374;-77
2021/12/10 08:34:47;;;;;;;8.57;4.22;;;3.00;99.90;;;;;;5064457;28;20055;-77
2021/12/10 08:37:14;;;;;;;8.57;5.40;;;3.00;99.90;;;;;;5086541;28;20048;-75
2021/12/10 08:39:40;;;;;;;5.75;3.50;;;3.10;99.90;;;;;;5051092;28;20036;-75
2021/12/10 08:42:06;;;;;;;3.63;2.97;;;3.10;99.90;;;;;;5069687;28;20041;-75
2021/12/10 08:44:33;;;;;;;5.97;3.78;;;3.10;99.90;;;;;;5069802;28;20041;-75
2021/12/10 08:47:00;;;;;;;7.65;4.80;;;3.20;99.90;;;;;;5041887;28;20045;-75
2021/12/10 08:49:27;;;;;;;3.88;2.78;;;3.30;99.90;;;;;;5027984;28;20045;-76
2021/12/10 08:51:56;;;;;;;5.53;3.25;;;3.40;99.90;;;;;;5046502;28;20037;-75
2021/12/10 08:54:27;;;;;;;7.53;3.97;;;3.60;99.90;;;;;;5053243;28;20102;-75
2021/12/10 08:56:54;;;;;;;5.00;3.88;;;3.70;99.90;;;;;;5027800;28;20445;-75
2021/12/10 08:59:23;;;;;;;9.35;4.65;;;3.90;99.90;;;;;;5044982;28;20127;-75
2021/12/10 09:01:52;;;;;;;6.05;3.80;;;4.00;99.90;;;;;;5079355;28;20038;-75
2021/12/10 09:04:18;;;;;;;3.85;3.10;;;4.20;99.90;;;;;;5039207;28;20128;-76
2021/12/10 09:06:48;;;;;;;5.57;3.25;;;4.30;99.90;;;;;;5031201;28;20127;-75
2021/12/10 09:09:17;;;;;;;7.13;4.25;;;4.40;99.90;;;;;;5061952;28;20048;-76
2021/12/10 09:11:47;;;;;;;6.75;4.07;;;4.50;99.90;;;;;;5044656;28;20136;-76
2021/12/10 09:14:14;;;;;;;1.58;1.40;;;4.60;99.90;;;;;;5057180;28;20041;-76
2021/12/10 09:16:40;;;;;;;7.43;4.22;;;4.60;99.90;;;;;;5042338;28;20382;-76
2021/12/10 09:19:12;;;;;;;3.35;3.05;;;4.70;99.90;;;;;;5049171;28;20471;-76
2021/12/10 09:21:40;;;;;;;6.28;3.90;;;4.80;99.90;;;;;;5050670;28;20381;-76
2021/12/10 09:24:09;;;;;;;2.80;2.15;;;4.90;99.90;;;;;;5051406;28;20033;-76
2021/12/10 09:26:41;;;;;;;3.15;2.65;;;4.90;99.90;;;;;;5043066;28;20397;-76
2021/12/10 09:29:10;;;;;;;6.00;3.08;;;4.90;99.90;;;;;;5046213;28;20065;-76
2021/12/10 09:31:39;;;;;;;3.65;2.40;;;5.00;99.90;;;;;;5050308;28;20049;-76
2021/12/10 09:34:05;;;;;;;5.00;3.00;;;5.00;99.90;;;;;;5080489;28;20041;-76
2021/12/10 09:36:32;;;;;;;2.30;1.95;;;5.00;99.90;;;;;;5048394;28;20048;-76
2021/12/10 09:38:59;;;;;;;3.08;2.10;;;5.00;99.90;;;;;;5056034;28;20041;-76
2021/12/10 09:41:26;;;;;;;2.83;2.58;;;5.00;99.90;;;;;;5046633;28;20040;-76
2021/12/10 09:43:53;;;;;;;5.13;4.07;;;5.10;99.90;;;;;;5068646;28;20044;-76
2021/12/10 09:46:19;;;;;;;2.15;1.92;;;5.10;99.90;;;;;;5068400;28;20397;-76
2021/12/10 09:48:45;;;;;;;2.60;2.40;;;5.20;99.90;;;;;;5060898;28;20044;-76
2021/12/10 09:51:19;;;;;;;1.73;1.10;;;5.20;99.90;;;;;;5052253;28;20044;-76
2021/12/10 09:53:48;;;;;;;8.05;3.33;;;5.20;99.90;;;;;;5052018;28;20072;-76
2021/12/10 09:56:16;;;;;;;3.50;2.72;;;5.20;99.90;;;;;;5069597;28;20084;-76
2021/12/10 09:58:42;;;;;;;6.93;3.75;;;5.30;99.90;;;;;;5033142;28;20094;-76
2021/12/10 10:01:22;;;;;;;2.95;2.42;;;5.20;99.90;;;;;;5051676;28;20059;-76
2021/12/10 10:03:50;;;;;;;7.75;2.15;;;5.20;99.90;;;;;;5025440;28;20045;-76
2021/12/10 10:06:17;;;;;;;6.25;2.58;;;5.20;99.90;;;;;;5041459;28;20278;-76
2021/12/10 10:08:44;;;;;;;6.07;2.75;;;5.20;99.90;;;;;;5032712;28;20033;-76
2021/12/10 10:11:17;;;;;;;0.88;0.88;;;5.30;99.90;;;;;;5048344;28;20037;-76
2021/12/10 10:13:45;;;;;;;1.65;1.55;;;5.30;99.90;;;;;;5076625;28;20456;-76
2021/12/10 10:16:12;;;;;;;6.32;2.20;;;5.30;99.90;;;;;;5036926;28;20137;-76
2021/12/10 10:18:40;;;;;;;9.98;2.08;;;5.30;99.90;;;;;;5034943;28;20071;-76
2021/12/10 10:21:16;;;;;;;3.88;2.63;;;5.40;99.90;;;;;;5077913;28;20045;-76
2021/12/10 10:23:43;;;;;;;9.75;1.80;;;5.40;99.90;;;;;;5055943;28;20036;-75
2021/12/10 10:26:13;;;;;;;12.20;4.03;;;5.50;99.90;;;;;;5032404;28;20397;-76
2021/12/10 10:28:39;;;;;;;2.78;2.42;;;5.60;99.90;;;;;;5036402;28;20025;-77
2021/12/10 10:31:11;;;;;;;4.60;2.85;;;5.50;99.90;;;;;;5049715;28;20124;-76
2021/12/10 10:33:39;;;;;;;5.82;2.95;;;5.60;99.90;;;;;;5031609;28;20047;-76
2021/12/10 10:36:11;;;;;;;6.28;1.98;;;5.60;99.90;;;;;;5029248;28;20108;-76
2021/12/10 10:38:38;;;;;;;2.55;1.73;;;5.60;99.90;;;;;;5023841;28;20497;-76
2021/12/10 10:41:08;;;;;;;8.65;2.53;;;5.60;99.90;;;;;;5033374;28;20107;-76
2021/12/10 10:43:35;;;;;;;4.13;2.67;;;5.50;99.90;;;;;;5027723;28;20535;-76
2021/12/10 10:46:01;;;;;;;5.05;2.10;;;5.50;99.90;;;;;;5054223;28;20060;-76
2021/12/10 10:48:28;;;;;;;3.75;2.03;;;5.50;99.90;;;;;;5070086;28;20029;-75
2021/12/10 10:51:11;;;;;;;2.45;1.75;;;5.50;99.90;;;;;;5068235;28;20037;-76
2021/12/10 10:53:44;;;;;;;3.03;2.00;;;5.60;99.90;;;;;;5045834;28;20041;-76
2021/12/10 10:56:18;;;;;;;3.25;2.60;;;5.50;99.90;;;;;;5023331;28;20132;-76
2021/12/10 10:58:54;;;;;;;1.67;1.58;;;5.50;99.90;;;;;;5037043;28;20048;-75
2021/12/10 11:01:24;;;;;;;2.25;1.25;;;5.50;99.90;;;;;;5034838;28;20041;-76
2021/12/10 11:03:58;;;;;;;2.78;2.50;;;5.50;99.90;;;;;;5033336;28;20214;-75
2021/12/10 11:06:29;;;;;;;11.68;2.88;;;5.60;99.90;;;;;;5037245;28;20048;-76
2021/12/10 11:09:10;;;;;;;6.05;2.75;;;5.70;99.90;;;;;;5036932;28;20033;-75
2021/12/10 11:11:43;;;;;;;4.35;2.72;;;5.70;99.90;;;;;;5020872;28;20139;-75
2021/12/10 11:14:18;;;;;;;1.75;1.58;;;5.80;99.90;;;;;;5068000;28;20090;-75
2021/12/10 11:16:47;;;;;;;1.77;1.67;;;5.80;99.90;;;;;;5035781;28;20090;-75
2021/12/10 11:19:28;;;;;;;0.63;0.63;;;5.80;99.90;;;;;;5067203;28;20272;-76
2021/12/10 11:22:01;;;;;;;1.52;0.95;;;5.80;99.90;;;;;;5036912;28;20044;-75
2021/12/10 11:24:37;;;;;;;2.72;2.17;;;5.80;99.90;;;;;;5033715;28;20044;-75
2021/12/10 11:27:08;;;;;;;2.25;1.33;;;5.90;99.90;;;;;;5033361;28;20040;-76
2021/12/10 11:30:06;;;;;;;4.10;1.90;;;5.90;99.90;;;;;;5021096;28;20087;-76
2021/12/10 11:32:40;;;;;;;3.22;2.33;;;6.00;99.90;;;;;;5014505;28;20052;-75
2021/12/10 11:35:09;;;;;;;1.45;1.35;;;6.00;99.90;;;;;;5026552;28;20044;-76
2021/12/10 11:37:50;;;;;;;1.08;1.05;;;6.00;99.90;;;;;;5061500;28;20619;-76
2021/12/10 11:40:45;;;;;;;2.25;2.05;;;6.10;99.90;;;;;;5021470;28;20122;-76
2021/12/10 11:48:55;;;;;;;7.50;1.75;;;6.30;99.90;;;;;;5063258;28;20055;-75
2021/12/10 11:51:28;;;;;;;2.20;1.95;;;6.30;99.90;;;;;;5033709;28;20045;-75
2021/12/10 11:53:55;;;;;;;;;;;6.20;99.90;;;;;;5022344;28;20069;-76
2021/12/10 11:56:23;;;;;;;2.22;1.85;;;6.20;99.90;;;;;;5055439;28;19921;-75
2021/12/10 11:59:11;;;;;;;2.75;2.00;;;6.30;99.90;;;;;;5025807;28;20411;-75
2021/12/10 12:02:03;;;;;;;2.20;2.00;;;6.20;99.90;;;;;;5029057;28;20049;-75
2021/12/10 12:04:33;;;;;;;0.93;0.93;;;6.20;99.90;;;;;;5018350;28;20053;-76
2021/12/10 12:07:34;;;;;;;2.40;2.03;;;6.20;99.90;;;;;;5018061;28;20194;-76
2021/12/10 12:10:22;;;;;;;1.70;1.60;;;6.20;99.90;;;;;;5033963;28;20847;-75
2021/12/10 12:12:59;;;;;;;1.15;1.05;;;6.20;99.90;;;;;;5048035;28;20041;-75
2021/12/10 12:15:30;;;;;;;1.95;1.75;;;6.10;99.90;;;;;;5019782;28;20040;-75
2021/12/10 12:18:09;;;;;;;3.50;2.40;;;6.10;99.90;;;;;;5036611;28;20041;-75
2021/12/10 12:20:38;;;;;;;2.75;2.40;;;6.00;99.90;;;;;;5035692;28;20127;-75
2021/12/10 12:25:54;;;;;;;6.70;2.65;;;5.80;99.90;;;;;;5039429;28;20068;-75
2021/12/10 12:28:24;;;;;;;2.72;1.88;;;5.70;99.90;;;;;;5040234;28;20550;-75
2021/12/10 12:30:56;;;;;;;0.52;0.52;;;5.80;99.90;;;;;;5038002;28;20037;-75
2021/12/10 12:33:24;;;;;;;2.50;1.50;;;5.70;99.90;;;;;;5032663;28;20045;-75
2021/12/10 12:35:51;;;;;;;3.50;2.28;;;5.70;99.90;;;;;;5053329;28;20452;-75
2021/12/10 12:38:27;;;;;;;2.40;1.35;;;5.80;99.90;;;;;;5033378;28;20095;-76
2021/12/10 12:41:20;;;;;;;3.40;1.67;;;5.80;99.90;;;;;;5069134;28;20041;-75
2021/12/10 12:44:08;;;;;;;16.88;2.10;;;5.80;99.90;;;;;;5036884;28;20123;-75
2021/12/10 12:46:52;;;;;;;2.40;2.10;;;5.80;99.90;;;;;;5013575;28;20049;-75
2021/12/10 12:49:18;;;;;;;2.30;1.27;;;5.80;99.90;;;;;;5029302;28;20513;-75
2021/12/10 12:52:02;;;;;;;9.18;2.17;;;5.80;99.90;;;;;;5056208;28;20127;-77
2021/12/10 12:54:29;;;;;;;0.88;0.63;;;5.80;99.90;;;;;;5038588;28;20089;-77
2021/12/10 12:56:55;;;;;;;2.58;0.90;;;5.70;99.90;;;;;;5033552;28;20045;-76
2021/12/10 12:59:22;;;;;;;2.60;1.98;;;5.70;99.90;;;;;;5025144;28;20049;-77
2021/12/10 13:01:53;;;;;;;2.90;1.73;;;5.70;99.90;;;;;;5023867;28;20049;-77
2021/12/10 13:04:33;;;;;;;1.15;1.05;;;5.70;99.90;;;;;;5034642;28;20059;-77
2021/12/10 13:07:21;;;;;;;1.05;0.95;;;5.70;99.90;;;;;;5019472;28;20049;-77
2021/12/10 13:09:56;;;;;;;0.43;0.43;;;5.60;99.90;;;;;;5026202;28;20037;-77
2021/12/10 13:15:03;;;;;;;3.15;1.55;;;5.60;99.90;;;;;;5073290;28;20436;-75
2021/12/10 13:17:37;;;;;;;1.13;1.08;;;5.60;99.90;;;;;;5040135;28;20099;-74
2021/12/10 13:20:14;;;;;;;5.70;1.38;;;5.50;99.90;;;;;;5039673;28;20045;-75
2021/12/10 13:22:42;;;;;;;2.50;1.45;;;5.50;99.90;;;;;;5033142;28;20045;-75
2021/12/10 13:25:12;;;;;;;1.10;1.00;;;5.40;99.90;;;;;;5061235;28;20045;-74
2021/12/10 13:27:40;;;;;;;5.05;1.80;;;5.40;99.90;;;;;;5067669;28;20393;-74